createdAt,value
2022-12-03T10:34:46.224Z,12.10
2022-12-03T10:37:22.307Z,11.13
2022-12-03T10:39:56.179Z,12.32
2022-12-03T10:42:34.338Z,12.90
2022-12-03T10:45:09.248Z,15.85
2022-12-03T10:47:36.425Z,15.40
2022-12-03T10:50:06.632Z,19.67
2022-12-03T10:52:33.813Z,22.52
2022-12-03T10:55:00.916Z,22.57
2022-12-03T10:57:28.131Z,11.18
2022-12-03T10:59:55.212Z,13.13
2022-12-03T11:02:24.808Z,13.95
2022-12-03T11:04:52.677Z,13.13
2022-12-03T11:07:21.553Z,12.60
2022-12-03T11:09:51.837Z,13.27
2022-12-03T11:12:27.774Z,11.47
2022-12-03T11:14:55.123Z,11.67
2022-12-03T11:17:45.272Z,14.63
2022-12-03T11:20:32.259Z,15.32
2022-12-03T11:22:59.904Z,20.48
2022-12-03T11:25:26.939Z,17.30
2022-12-03T11:28:15.374Z,12.88
2022-12-03T11:30:51.492Z,12.30
2022-12-03T11:33:33.910Z,10.57
2022-12-03T11:36:04.020Z,12.50
2022-12-03T11:39:00.305Z,8.18
2022-12-03T11:41:30.806Z,9.05
2022-12-03T11:44:01.814Z,8.05
2022-12-03T11:46:37.710Z,10.07
2022-12-03T11:49:36.274Z,10.48
2022-12-03T11:52:19.356Z,11.35
2022-12-03T11:54:50.689Z,10.52
2022-12-03T11:57:31.768Z,10.13
2022-12-03T12:00:15.352Z,9.15
2022-12-03T12:02:43.130Z,7.70
2022-12-03T12:05:16.337Z,6.88
2022-12-03T12:07:47.629Z,8.20
2022-12-03T12:10:45.442Z,6.25
2022-12-03T12:13:44.778Z,6.22
2022-12-03T12:16:11.946Z,7.22
2022-12-03T12:18:46.523Z,6.43
2022-12-03T12:21:40.992Z,6.40
2022-12-03T12:24:31.407Z,5.93
2022-12-03T12:27:06.388Z,5.93
2022-12-03T12:29:34.694Z,6.18
2022-12-03T12:32:10.939Z,4.82
2022-12-03T12:34:49.135Z,5.50
2022-12-03T12:37:33.467Z,4.80
2022-12-03T12:40:04.175Z,4.53
2022-12-03T12:42:42.791Z,4.33
2022-12-03T12:45:16.240Z,4.68
2022-12-03T12:47:57.348Z,4.60
2022-12-03T12:50:24.823Z,4.63
2022-12-03T12:52:55.362Z,6.18
2022-12-03T12:55:23.979Z,7.13
2022-12-03T12:57:51.491Z,6.75
2022-12-03T13:00:22.123Z,8.60
2022-12-03T13:02:50.685Z,8.63
2022-12-03T13:05:18.062Z,14.10
2022-12-03T13:07:45.524Z,13.38
2022-12-03T13:10:33.891Z,10.48
2022-12-03T13:13:14.492Z,9.82
2022-12-03T13:15:48.811Z,9.57
2022-12-03T13:18:38.365Z,8.80
2022-12-03T13:21:19.223Z,9.70
2022-12-03T13:23:46.435Z,7.78
2022-12-03T13:26:34.500Z,9.87
2022-12-03T13:29:16.084Z,7.70
2022-12-03T13:31:58.308Z,8.70
2022-12-03T13:34:28.580Z,8.90
2022-12-03T13:36:58.419Z,7.78
2022-12-03T13:39:28.908Z,7.95
2022-12-03T13:42:15.229Z,7.55
2022-12-03T13:44:48.629Z,7.65
2022-12-03T13:47:22.294Z,7.47
2022-12-03T13:49:58.137Z,8.02
2022-12-03T13:52:26.605Z,9.02
2022-12-03T13:54:55.900Z,7.20
2022-12-03T13:57:23.331Z,7.93
2022-12-03T13:59:50.404Z,8.10
2022-12-03T14:02:17.499Z,10.07
2022-12-03T14:04:44.577Z,8.43
2022-12-03T14:07:11.656Z,7.65
2022-12-03T14:09:38.705Z,7.55
2022-12-03T14:12:24.377Z,7.03
2022-12-03T14:14:51.962Z,6.68
2022-12-03T14:17:19.002Z,7.07
2022-12-03T14:19:46.183Z,6.77
2022-12-03T14:22:13.238Z,6.28
2022-12-03T14:24:40.289Z,6.75
2022-12-03T14:27:07.339Z,6.70
2022-12-03T14:29:34.473Z,5.90
2022-12-03T14:32:01.827Z,5.60
2022-12-03T14:34:28.978Z,5.70
2022-12-03T14:36:56.491Z,5.93
2022-12-03T14:39:23.625Z,5.50
2022-12-03T14:42:09.232Z,5.78
2022-12-03T14:44:36.323Z,5.27
2022-12-03T14:47:03.749Z,5.10
2022-12-03T14:49:30.820Z,5.18
2022-12-03T14:51:57.903Z,6.47
2022-12-03T14:54:24.979Z,7.28
2022-12-03T14:56:52.058Z,6.30
2022-12-03T14:59:23.129Z,5.85
2022-12-03T15:01:54.712Z,7.33
2022-12-03T15:04:21.942Z,7.70
2022-12-03T15:06:49.212Z,6.63
2022-12-03T15:09:16.357Z,6.47
2022-12-03T15:11:46.367Z,7.30
2022-12-03T15:14:13.938Z,7.05
2022-12-03T15:16:41.895Z,6.80
2022-12-03T15:19:09.065Z,6.63
2022-12-03T15:21:36.178Z,7.55
2022-12-03T15:24:03.397Z,7.40
2022-12-03T15:26:30.462Z,7.50
2022-12-03T15:28:57.572Z,6.70
2022-12-03T15:31:24.699Z,9.70
2022-12-03T15:33:51.835Z,8.23
2022-12-03T15:36:18.968Z,7.13
2022-12-03T15:38:45.994Z,6.80
2022-12-03T15:41:24.254Z,7.65
2022-12-03T15:43:52.663Z,8.20
2022-12-03T15:46:20.230Z,7.90
2022-12-03T15:48:48.289Z,7.35
2022-12-03T15:51:15.759Z,6.75
2022-12-03T15:53:43.177Z,7.30
2022-12-03T15:56:11.940Z,6.88
2022-12-03T15:58:40.173Z,6.07
2022-12-03T16:01:08.298Z,6.70
2022-12-03T16:03:36.411Z,6.65
2022-12-03T16:06:03.561Z,6.57
2022-12-03T16:08:30.721Z,6.10
2022-12-03T16:10:57.945Z,5.78
2022-12-03T16:13:25.025Z,6.10
2022-12-03T16:15:52.191Z,6.03
2022-12-03T16:18:19.321Z,6.13
2022-12-03T16:20:46.516Z,5.50
2022-12-03T16:23:13.680Z,7.00
2022-12-03T16:25:40.705Z,8.18
2022-12-03T16:28:07.779Z,6.80
2022-12-03T16:30:36.045Z,7.28
2022-12-03T16:33:03.464Z,7.50
2022-12-03T16:35:30.672Z,9.93
2022-12-03T16:37:57.741Z,10.10
2022-12-03T16:40:24.815Z,9.00
2022-12-03T16:42:51.897Z,8.13
2022-12-03T16:45:21.711Z,7.85
2022-12-03T16:47:49.689Z,12.13
2022-12-03T16:50:24.307Z,9.10
